Time;durP1;ratioP1;P1;durP2;ratioP2;P2;SDS_P1;SDS_P2;PMS_P1;PMS_P2;Temp;Humidity;BMP_temperature;BMP_pressure;BME280_temperature;BME280_humidity;BME280_pressure;Samples;Min_cycle;Max_cycle;Signal;HPM_P1;HPM_P2
2022/08/04 00:02:05;;;;;;;3.35;1.82;;;;;;;;;;1867759;74;26627;-89
2022/08/04 00:04:34;;;;;;;3.45;1.87;;;;;;;;;;1871447;75;26201;-86
2022/08/04 00:07:05;;;;;;;2.00;1.90;;;;;;;;;;1867267;75;26660;-87
2022/08/04 00:09:50;;;;;;;6.50;1.90;;;;;;;;;;1865188;74;26326;-87
2022/08/04 00:12:19;;;;;;;2.12;1.92;;;;;;;;;;1871348;75;26226;-87
2022/08/04 00:14:48;;;;;;;2.20;2.00;;;;;;;;;;1869573;74;26738;-86
2022/08/04 00:17:17;;;;;;;3.27;1.85;;;;;;;;;;1874004;74;26277;-86
2022/08/04 00:19:45;;;;;;;2.75;2.05;;;;;;;;;;1878944;74;26213;-87
2022/08/04 00:22:13;;;;;;;2.00;1.67;;;;;;;;;;1868566;75;26247;-87
2022/08/04 00:24:40;;;;;;;3.25;1.90;;;;;;;;;;1877908;74;26263;-88
2022/08/04 00:27:08;;;;;;;3.45;2.12;;;;;;;;;;1870652;75;26259;-88
2022/08/04 00:29:37;;;;;;;2.10;2.00;;;;;;;;;;1873466;75;26299;-87
2022/08/04 00:32:06;;;;;;;3.70;1.80;;;;;;;;;;1858691;75;26209;-88
2022/08/04 00:34:33;;;;;;;3.92;1.77;;;;;;;;;;1863945;75;26871;-87
2022/08/04 00:37:00;;;;;;;2.20;2.00;;;;;;;;;;1865229;75;26314;-87
2022/08/04 00:39:29;;;;;;;1.80;1.70;;;;;;;;;;1868456;74;26263;-88
2022/08/04 00:42:14;;;;;;;3.17;2.25;;;;;;;;;;1879751;74;26306;-87
2022/08/04 00:44:43;;;;;;;4.40;2.00;;;;;;;;;;1862810;75;26732;-87
2022/08/04 00:47:12;;;;;;;2.87;1.90;;;;;;;;;;1859226;75;26195;-88
2022/08/04 00:49:53;;;;;;;1.70;1.60;;;;;;;;;;1856577;75;26282;-88
2022/08/04 00:52:24;;;;;;;1.90;1.80;;;;;;;;;;1867482;75;26304;-88
2022/08/04 00:54:53;;;;;;;1.87;1.77;;;;;;;;;;1874703;75;26905;-88
2022/08/04 00:57:25;;;;;;;1.70;1.60;;;;;;;;;;1862799;75;26753;-87
2022/08/04 00:59:57;;;;;;;1.87;1.70;;;;;;;;;;1872585;75;26284;-88
2022/08/04 01:02:25;;;;;;;1.80;1.70;;;;;;;;;;1870497;75;26286;-89
2022/08/04 01:05:06;;;;;;;1.92;1.60;;;;;;;;;;1871604;75;26406;-87
2022/08/04 01:07:47;;;;;;;1.67;1.60;;;;;;;;;;1863738;75;26277;-87
2022/08/04 01:10:32;;;;;;;6.17;1.80;;;;;;;;;;1869301;74;26339;-87
2022/08/04 01:13:17;;;;;;;1.87;1.62;;;;;;;;;;1864764;75;26175;-88
2022/08/04 01:15:46;;;;;;;2.12;1.65;;;;;;;;;;1861687;75;26269;-87
2022/08/04 01:18:15;;;;;;;1.62;1.52;;;;;;;;;;1865949;74;26355;-87
2022/08/04 01:20:47;;;;;;;2.37;1.52;;;;;;;;;;1864845;74;26369;-88
2022/08/04 01:23:15;;;;;;;1.57;1.47;;;;;;;;;;1868224;75;26710;-88
2022/08/04 01:25:47;;;;;;;1.70;1.60;;;;;;;;;;1867433;75;26818;-88
2022/08/04 01:28:28;;;;;;;1.55;1.55;;;;;;;;;;1878818;74;26752;-87
2022/08/04 01:31:00;;;;;;;2.90;1.37;;;;;;;;;;1873454;74;26335;-87
2022/08/04 01:33:29;;;;;;;1.50;1.40;;;;;;;;;;1854197;75;26304;-88
2022/08/04 01:35:58;;;;;;;1.40;1.40;;;;;;;;;;1854519;75;26167;-88
2022/08/04 01:38:27;;;;;;;1.57;1.47;;;;;;;;;;1852926;75;26230;-87
2022/08/04 01:40:58;;;;;;;1.60;1.50;;;;;;;;;;1874153;74;26320;-88
2022/08/04 01:43:28;;;;;;;1.60;1.50;;;;;;;;;;1865606;74;26321;-87
2022/08/04 01:45:59;;;;;;;1.57;1.50;;;;;;;;;;1873138;75;26219;-88
2022/08/04 01:48:27;;;;;;;1.55;1.47;;;;;;;;;;1884089;74;26709;-87
2022/08/04 01:50:56;;;;;;;1.30;1.30;;;;;;;;;;1871136;74;26225;-87
2022/08/04 01:53:25;;;;;;;1.60;1.50;;;;;;;;;;1871523;75;26359;-88
2022/08/04 01:55:53;;;;;;;1.50;1.50;;;;;;;;;;1875459;75;26252;-88
2022/08/04 01:58:21;;;;;;;1.50;1.50;;;;;;;;;;1875150;74;26323;-89
2022/08/04 02:01:05;;;;;;;1.22;1.22;;;;;;;;;;1869281;75;26714;-88
2022/08/04 02:03:33;;;;;;;1.50;1.37;;;;;;;;;;1866808;75;26315;-89
2022/08/04 02:06:02;;;;;;;1.30;1.30;;;;;;;;;;1874386;75;26289;-88
2022/08/04 02:08:31;;;;;;;1.60;1.50;;;;;;;;;;1866140;75;26226;-88
2022/08/04 02:11:05;;;;;;;1.30;1.30;;;;;;;;;;1861128;75;26344;-88
2022/08/04 02:13:34;;;;;;;1.57;1.47;;;;;;;;;;1864298;75;26257;-88
2022/08/04 02:16:03;;;;;;;1.67;1.30;;;;;;;;;;1881769;75;26376;-88
2022/08/04 02:18:32;;;;;;;1.40;1.40;;;;;;;;;;1872553;75;26264;-89
2022/08/04 02:21:01;;;;;;;1.50;1.40;;;;;;;;;;1871184;75;26299;-89
2022/08/04 02:23:32;;;;;;;1.40;1.40;;;;;;;;;;1870814;75;27159;-88
2022/08/04 02:26:01;;;;;;;1.42;1.42;;;;;;;;;;1875036;75;26305;-89
2022/08/04 02:28:39;;;;;;;1.50;1.40;;;;;;;;;;1869720;75;26207;-88
2022/08/04 02:31:17;;;;;;;1.40;1.40;;;;;;;;;;1871656;75;26214;-87
2022/08/04 02:33:49;;;;;;;1.52;1.42;;;;;;;;;;1872482;75;26258;-88
2022/08/04 02:36:17;;;;;;;1.40;1.40;;;;;;;;;;1875425;75;26673;-88
2022/08/04 02:38:49;;;;;;;1.55;1.50;;;;;;;;;;1866926;75;26361;-88
2022/08/04 02:41:17;;;;;;;1.67;1.30;;;;;;;;;;1874515;75;26794;-86
2022/08/04 02:43:47;;;;;;;1.30;1.30;;;;;;;;;;1879206;75;26223;-88
2022/08/04 02:46:15;;;;;;;1.30;1.30;;;;;;;;;;1874642;75;26332;-88
2022/08/04 02:48:44;;;;;;;1.42;1.42;;;;;;;;;;1878542;75;26293;-88
2022/08/04 02:51:13;;;;;;;1.47;1.42;;;;;;;;;;1850126;75;26257;-88
2022/08/04 02:53:41;;;;;;;1.20;1.17;;;;;;;;;;1858911;75;26755;-89
2022/08/04 02:56:09;;;;;;;1.37;1.37;;;;;;;;;;1874573;75;26253;-87
2022/08/04 02:58:36;;;;;;;1.30;1.30;;;;;;;;;;1869630;74;26756;-88
2022/08/04 03:01:04;;;;;;;1.60;1.50;;;;;;;;;;1869633;74;26213;-88
2022/08/04 03:03:35;;;;;;;1.30;1.30;;;;;;;;;;1884379;75;26674;-87
2022/08/04 03:06:10;;;;;;;1.50;1.40;;;;;;;;;;1872080;75;26886;-87
2022/08/04 03:08:45;;;;;;;1.20;1.20;;;;;;;;;;1865278;75;26201;-88
2022/08/04 03:11:20;;;;;;;1.50;1.40;;;;;;;;;;1866226;75;26707;-87
2022/08/04 03:13:49;;;;;;;1.20;1.20;;;;;;;;;;1871484;75;26190;-87
2022/08/04 03:16:23;;;;;;;1.20;1.20;;;;;;;;;;1883319;74;26199;-88
2022/08/04 03:19:04;;;;;;;1.30;1.30;;;;;;;;;;1870734;74;26697;-87
2022/08/04 03:21:45;;;;;;;1.20;1.20;;;;;;;;;;1866926;75;26177;-88
2022/08/04 03:24:19;;;;;;;1.10;1.10;;;;;;;;;;1870619;75;26210;-87
2022/08/04 03:26:51;;;;;;;1.40;1.30;;;;;;;;;;1874850;74;26324;-87
2022/08/04 03:29:25;;;;;;;1.17;1.17;;;;;;;;;;1837343;74;26178;-86
2022/08/04 03:32:11;;;;;;;1.10;1.10;;;;;;;;;;1859896;75;26316;-87
2022/08/04 03:34:48;;;;;;;1.40;1.30;;;;;;;;;;1865176;74;26787;-88
2022/08/04 03:37:17;;;;;;;1.20;1.20;;;;;;;;;;1873611;75;26186;-88
2022/08/04 03:39:49;;;;;;;1.30;1.30;;;;;;;;;;1851624;74;26277;-88
2022/08/04 03:42:26;;;;;;;1.15;1.15;;;;;;;;;;1861348;75;26657;-89
2022/08/04 03:44:58;;;;;;;1.27;1.27;;;;;;;;;;1873099;75;26190;-87
2022/08/04 03:47:43;;;;;;;1.30;1.30;;;;;;;;;;1883614;74;26194;-87
2022/08/04 03:50:27;;;;;;;1.30;1.30;;;;;;;;;;1872794;74;26190;-87
2022/08/04 03:53:08;;;;;;;1.20;1.20;;;;;;;;;;1804213;77;26706;-88
2022/08/04 03:55:40;;;;;;;1.25;1.15;;;;;;;;;;1850446;74;26797;-88
2022/08/04 03:58:09;;;;;;;1.10;1.10;;;;;;;;;;1873786;74;26201;-87
2022/08/04 04:00:47;;;;;;;1.12;1.12;;;;;;;;;;1872911;74;26211;-87
2022/08/04 04:03:25;;;;;;;1.10;1.10;;;;;;;;;;1805065;77;26273;-87
2022/08/04 04:05:56;;;;;;;1.10;1.10;;;;;;;;;;1880520;74;26275;-87
2022/08/04 04:08:31;;;;;;;1.00;1.00;;;;;;;;;;1868851;74;26233;-88
2022/08/04 04:11:00;;;;;;;1.07;1.07;;;;;;;;;;1866063;75;26195;-87
2022/08/04 04:13:31;;;;;;;1.17;1.17;;;;;;;;;;1883454;75;26272;-87
2022/08/04 04:16:06;;;;;;;1.20;1.20;;;;;;;;;;1873651;75;26251;-87
2022/08/04 04:18:47;;;;;;;1.10;1.10;;;;;;;;;;1865810;74;26295;-87
2022/08/04 04:21:32;;;;;;;0.95;0.95;;;;;;;;;;1880445;74;26663;-88
2022/08/04 04:24:04;;;;;;;0.95;0.95;;;;;;;;;;1873298;75;26604;-88
2022/08/04 04:26:38;;;;;;;0.90;0.90;;;;;;;;;;1872256;75;26473;-88
2022/08/04 04:29:22;;;;;;;1.07;1.07;;;;;;;;;;1864255;74;26340;-88
2022/08/04 04:31:54;;;;;;;1.00;1.00;;;;;;;;;;1867857;74;26296;-88
2022/08/04 04:34:23;;;;;;;0.98;0.98;;;;;;;;;;1859139;74;26218;-88
2022/08/04 04:37:00;;;;;;;0.98;0.98;;;;;;;;;;1883218;74;26220;-87
2022/08/04 04:39:33;;;;;;;0.82;0.80;;;;;;;;;;1851056;75;26625;-88
2022/08/04 04:42:18;;;;;;;1.02;1.02;;;;;;;;;;1868671;74;26234;-87
2022/08/04 04:44:50;;;;;;;1.00;1.00;;;;;;;;;;1866698;74;26220;-87
2022/08/04 04:47:25;;;;;;;1.00;1.00;;;;;;;;;;1877714;75;26296;-88
2022/08/04 04:49:53;;;;;;;0.90;0.90;;;;;;;;;;1868866;74;26279;-87
2022/08/04 04:52:26;;;;;;;1.05;1.05;;;;;;;;;;1865988;74;26187;-86
2022/08/04 04:54:54;;;;;;;1.00;1.00;;;;;;;;;;1874137;74;26268;-87
2022/08/04 04:57:23;;;;;;;1.00;1.00;;;;;;;;;;1867152;75;26220;-87
2022/08/04 04:59:57;;;;;;;1.02;1.02;;;;;;;;;;1852825;74;26245;-87
2022/08/04 05:02:40;;;;;;;1.15;1.15;;;;;;;;;;1869657;75;26221;-87
2022/08/04 05:05:12;;;;;;;0.98;0.98;;;;;;;;;;1883973;74;26193;-86
2022/08/04 05:07:49;;;;;;;1.00;1.00;;;;;;;;;;1864545;74;26271;-87
2022/08/04 05:10:20;;;;;;;0.90;0.90;;;;;;;;;;1874616;74;26229;-88
2022/08/04 05:12:49;;;;;;;0.98;0.98;;;;;;;;;;1873271;75;26243;-87
2022/08/04 05:15:16;;;;;;;1.00;1.00;;;;;;;;;;1873419;74;26174;-87
2022/08/04 05:17:45;;;;;;;0.88;0.88;;;;;;;;;;1865492;74;26237;-87
2022/08/04 05:20:14;;;;;;;0.95;0.95;;;;;;;;;;1874012;74;27019;-87
2022/08/04 05:22:43;;;;;;;0.90;0.90;;;;;;;;;;1868577;74;27224;-89
2022/08/04 05:25:18;;;;;;;1.00;1.00;;;;;;;;;;1871066;74;27081;-87
2022/08/04 05:27:47;;;;;;;0.90;0.90;;;;;;;;;;1868055;75;27011;-87
2022/08/04 05:30:14;;;;;;;0.90;0.90;;;;;;;;;;1857715;74;26314;-87
2022/08/04 05:32:49;;;;;;;0.90;0.90;;;;;;;;;;1876825;74;26214;-88
2022/08/04 05:35:18;;;;;;;0.80;0.80;;;;;;;;;;1878051;75;26174;-88
2022/08/04 05:37:47;;;;;;;0.80;0.80;;;;;;;;;;1859900;75;26322;-87
2022/08/04 05:40:16;;;;;;;0.80;0.80;;;;;;;;;;1869644;75;26225;-88
2022/08/04 05:42:43;;;;;;;0.90;0.90;;;;;;;;;;1882341;75;26246;-88
2022/08/04 05:45:10;;;;;;;1.00;1.00;;;;;;;;;;1872302;75;26204;-86
2022/08/04 05:47:38;;;;;;;0.88;0.88;;;;;;;;;;1873760;75;26217;-87
2022/08/04 05:50:06;;;;;;;0.90;0.90;;;;;;;;;;1875834;75;26226;-87
2022/08/04 05:52:35;;;;;;;0.80;0.80;;;;;;;;;;1839203;75;26178;-87
2022/08/04 05:55:03;;;;;;;1.00;1.00;;;;;;;;;;1877534;75;26288;-90
2022/08/04 05:57:31;;;;;;;0.80;0.80;;;;;;;;;;1870485;73;26209;-89
2022/08/04 05:59:59;;;;;;;0.90;0.90;;;;;;;;;;1874583;72;26221;-89
2022/08/04 06:02:27;;;;;;;0.80;0.80;;;;;;;;;;1867786;73;26235;-88
2022/08/04 06:04:55;;;;;;;0.82;0.82;;;;;;;;;;1882564;71;26238;-90
2022/08/04 06:07:25;;;;;;;0.80;0.80;;;;;;;;;;1884318;72;26142;-88
2022/08/04 06:09:52;;;;;;;0.80;0.80;;;;;;;;;;1884504;72;26176;-88
2022/08/04 06:12:27;;;;;;;0.90;0.90;;;;;;;;;;1882632;72;26284;-87
2022/08/04 06:14:55;;;;;;;0.82;0.82;;;;;;;;;;1865072;76;26219;-87
2022/08/04 06:17:24;;;;;;;0.80;0.80;;;;;;;;;;1881678;74;26159;-88
2022/08/04 06:19:52;;;;;;;0.90;0.90;;;;;;;;;;1875580;74;26234;-88
2022/08/04 06:22:21;;;;;;;0.80;0.80;;;;;;;;;;1874294;74;26166;-87
2022/08/04 06:24:51;;;;;;;0.80;0.80;;;;;;;;;;1860820;74;26201;-88
2022/08/04 06:27:18;;;;;;;0.78;0.78;;;;;;;;;;1868306;74;26328;-87
2022/08/04 06:29:47;;;;;;;0.70;0.70;;;;;;;;;;1824498;74;26181;-87
2022/08/04 06:35:03;;;;;;;0.70;0.70;;;;;;;;;;1866589;75;26263;-87
2022/08/04 06:37:31;;;;;;;0.80;0.80;;;;;;;;;;1864803;75;26184;-87
2022/08/04 06:40:00;;;;;;;0.80;0.80;;;;;;;;;;1864314;74;26268;-88
2022/08/04 06:42:28;;;;;;;0.90;0.90;;;;;;;;;;1864511;75;26613;-87
2022/08/04 06:44:57;;;;;;;0.80;0.80;;;;;;;;;;1882571;75;26288;-88
2022/08/04 06:47:25;;;;;;;0.90;0.90;;;;;;;;;;1863068;75;26252;-87
2022/08/04 06:49:53;;;;;;;0.78;0.78;;;;;;;;;;1865670;75;26253;-88
2022/08/04 06:52:20;;;;;;;0.68;0.68;;;;;;;;;;1863976;74;26216;-87
2022/08/04 06:54:48;;;;;;;0.80;0.80;;;;;;;;;;1864169;75;26259;-87
2022/08/04 06:57:20;;;;;;;0.70;0.70;;;;;;;;;;1856904;75;26240;-88
2022/08/04 06:59:49;;;;;;;0.78;0.78;;;;;;;;;;1871151;74;26744;-88
2022/08/04 07:02:17;;;;;;;0.75;0.75;;;;;;;;;;1868588;74;26229;-88
2022/08/04 07:04:45;;;;;;;0.68;0.68;;;;;;;;;;1874609;75;26367;-87
2022/08/04 07:07:13;;;;;;;0.80;0.80;;;;;;;;;;1873760;75;26222;-88
2022/08/04 07:09:40;;;;;;;0.80;0.80;;;;;;;;;;1867204;75;26312;-88
2022/08/04 07:12:08;;;;;;;0.90;0.90;;;;;;;;;;1865133;74;26339;-86
2022/08/04 07:14:36;;;;;;;0.80;0.80;;;;;;;;;;1878702;74;26186;-87
2022/08/04 07:17:04;;;;;;;0.80;0.80;;;;;;;;;;1869124;75;26198;-88
2022/08/04 07:19:35;;;;;;;0.70;0.70;;;;;;;;;;1870469;74;26680;-87
2022/08/04 07:22:05;;;;;;;0.72;0.72;;;;;;;;;;1862261;75;26309;-87
2022/08/04 07:24:32;;;;;;;0.70;0.70;;;;;;;;;;1856933;75;26260;-88
2022/08/04 07:27:00;;;;;;;0.85;0.85;;;;;;;;;;1871594;74;26693;-87
2022/08/04 07:29:28;;;;;;;0.80;0.80;;;;;;;;;;1876127;74;26289;-87
2022/08/04 07:31:57;;;;;;;0.72;0.72;;;;;;;;;;1827171;75;26212;-87
2022/08/04 07:34:26;;;;;;;0.70;0.70;;;;;;;;;;1864695;74;26324;-87
2022/08/04 07:36:54;;;;;;;0.93;0.80;;;;;;;;;;1866520;74;26214;-87
2022/08/04 07:39:23;;;;;;;0.68;0.68;;;;;;;;;;1865880;74;26762;-87
2022/08/04 07:41:50;;;;;;;0.80;0.80;;;;;;;;;;1866686;74;26386;-89
2022/08/04 07:44:18;;;;;;;1.37;0.80;;;;;;;;;;1870105;74;26891;-89
2022/08/04 07:46:45;;;;;;;0.78;0.70;;;;;;;;;;1867776;75;26354;-88
2022/08/04 07:49:14;;;;;;;0.75;0.75;;;;;;;;;;1859569;74;26186;-87
2022/08/04 07:51:41;;;;;;;0.80;0.80;;;;;;;;;;1856363;75;26245;-87
2022/08/04 07:54:09;;;;;;;0.80;0.80;;;;;;;;;;1880196;75;26226;-87
2022/08/04 07:56:38;;;;;;;2.70;1.22;;;;;;;;;;1876508;75;26256;-89
2022/08/04 07:59:05;;;;;;;2.55;1.32;;;;;;;;;;1870467;75;26652;-88
2022/08/04 08:01:34;;;;;;;4.58;0.90;;;;;;;;;;1869964;75;26210;-87
2022/08/04 08:04:02;;;;;;;0.93;0.88;;;;;;;;;;1855618;74;26210;-87
2022/08/04 08:06:29;;;;;;;4.08;0.90;;;;;;;;;;1857579;74;26249;-87
2022/08/04 08:08:59;;;;;;;7.40;1.20;;;;;;;;;;1861493;74;26334;-88
2022/08/04 08:11:27;;;;;;;4.85;0.90;;;;;;;;;;1875479;74;26182;-87
2022/08/04 08:13:55;;;;;;;2.12;1.10;;;;;;;;;;1877293;75;26233;-88
2022/08/04 08:16:22;;;;;;;2.20;0.90;;;;;;;;;;1884002;75;26218;-88
2022/08/04 08:18:50;;;;;;;1.12;0.75;;;;;;;;;;1890365;75;26267;-88
2022/08/04 08:21:18;;;;;;;1.80;0.98;;;;;;;;;;1873145;74;26249;-86
2022/08/04 08:23:46;;;;;;;1.40;1.30;;;;;;;;;;1868084;75;26235;-87
2022/08/04 08:26:13;;;;;;;1.00;1.00;;;;;;;;;;1868564;75;26204;-88
2022/08/04 08:28:41;;;;;;;1.00;1.00;;;;;;;;;;1877499;75;26254;-90
2022/08/04 08:31:08;;;;;;;0.70;0.70;;;;;;;;;;1872537;74;26258;-87
2022/08/04 08:33:35;;;;;;;2.75;1.00;;;;;;;;;;1876249;74;26238;-86
2022/08/04 08:36:04;;;;;;;0.90;0.90;;;;;;;;;;1878635;74;26386;-87
2022/08/04 08:38:36;;;;;;;1.30;0.78;;;;;;;;;;1870261;74;26810;-86
2022/08/04 08:41:10;;;;;;;1.37;0.88;;;;;;;;;;1861267;74;26694;-87
2022/08/04 08:43:54;;;;;;;1.00;1.00;;;;;;;;;;1866502;75;26206;-88
2022/08/04 08:46:38;;;;;;;1.00;0.90;;;;;;;;;;1865502;74;26273;-87
2022/08/04 08:49:15;;;;;;;0.80;0.80;;;;;;;;;;1864880;75;26767;-86
2022/08/04 08:52:00;;;;;;;0.80;0.80;;;;;;;;;;1863730;75;26755;-86
2022/08/04 08:54:29;;;;;;;0.72;0.72;;;;;;;;;;1876099;75;26221;-87
2022/08/04 08:57:14;;;;;;;0.90;0.90;;;;;;;;;;1869400;75;26267;-87
2022/08/04 09:00:01;;;;;;;0.80;0.80;;;;;;;;;;1883435;75;26242;-86
2022/08/04 09:02:46;;;;;;;0.90;0.90;;;;;;;;;;1873337;74;26219;-86
2022/08/04 09:05:21;;;;;;;0.90;0.90;;;;;;;;;;1873304;75;26320;-87
2022/08/04 09:08:06;;;;;;;0.80;0.80;;;;;;;;;;1866871;75;26662;-87
2022/08/04 09:10:35;;;;;;;1.00;1.00;;;;;;;;;;1872776;74;26292;-87
2022/08/04 09:13:04;;;;;;;0.90;0.90;;;;;;;;;;1859257;74;26338;-86
2022/08/04 09:15:38;;;;;;;1.12;0.95;;;;;;;;;;1879684;75;26648;-86
2022/08/04 09:18:25;;;;;;;0.85;0.85;;;;;;;;;;1841383;75;26238;-87
2022/08/04 09:21:06;;;;;;;2.60;0.93;;;;;;;;;;1851132;75;26291;-88
2022/08/04 09:23:43;;;;;;;1.12;0.80;;;;;;;;;;1836538;75;26727;-87
2022/08/04 09:26:12;;;;;;;1.00;0.90;;;;;;;;;;1864078;75;26642;-87
2022/08/04 09:28:47;;;;;;;3.20;1.07;;;;;;;;;;1865712;75;26192;-86
2022/08/04 09:31:16;;;;;;;2.17;0.90;;;;;;;;;;1866603;75;26214;-89
2022/08/04 09:33:50;;;;;;;2.77;1.00;;;;;;;;;;1863959;75;26261;-91
2022/08/04 09:36:25;;;;;;;1.00;1.00;;;;;;;;;;1869381;75;26173;-91
2022/08/04 09:38:53;;;;;;;2.35;1.00;;;;;;;;;;1864328;75;26661;-88
2022/08/04 09:41:25;;;;;;;0.90;0.90;;;;;;;;;;1876127;75;26219;-87
2022/08/04 09:44:00;;;;;;;1.05;0.95;;;;;;;;;;1867656;75;26296;-88
2022/08/04 09:46:29;;;;;;;1.00;1.00;;;;;;;;;;1842983;75;26349;-89
2022/08/04 09:49:00;;;;;;;3.20;0.90;;;;;;;;;;1867023;75;26212;-88
2022/08/04 09:51:47;;;;;;;1.45;0.85;;;;;;;;;;1858127;75;26666;-88
2022/08/04 09:54:16;;;;;;;1.00;0.90;;;;;;;;;;1864810;75;26271;-88
2022/08/04 09:56:47;;;;;;;0.80;0.80;;;;;;;;;;1870552;75;26689;-91
2022/08/04 09:59:25;;;;;;;0.90;0.90;;;;;;;;;;1837645;75;26295;-89
2022/08/04 10:01:54;;;;;;;0.90;0.90;;;;;;;;;;1872909;75;26355;-88
2022/08/04 10:04:24;;;;;;;0.70;0.70;;;;;;;;;;1868672;75;26200;-88
2022/08/04 10:06:59;;;;;;;0.80;0.80;;;;;;;;;;1868090;75;26223;-87
2022/08/04 10:09:34;;;;;;;1.27;0.88;;;;;;;;;;1860464;75;26246;-87
2022/08/04 10:12:19;;;;;;;0.70;0.70;;;;;;;;;;1868514;75;26218;-90
2022/08/04 10:14:54;;;;;;;0.62;0.62;;;;;;;;;;1882403;75;26228;-87
2022/08/04 10:17:29;;;;;;;0.82;0.82;;;;;;;;;;1874553;75;26183;-92
2022/08/04 10:19:58;;;;;;;1.42;0.82;;;;;;;;;;1867264;75;26293;-91
2022/08/04 10:22:27;;;;;;;0.80;0.80;;;;;;;;;;1870745;75;26238;-89
2022/08/04 10:25:10;;;;;;;0.82;0.82;;;;;;;;;;1859980;75;26215;-90
2022/08/04 10:27:42;;;;;;;1.02;0.80;;;;;;;;;;1864158;75;26295;-90
2022/08/04 10:30:13;;;;;;;0.85;0.85;;;;;;;;;;1859335;75;26308;-88
2022/08/04 10:32:42;;;;;;;0.80;0.80;;;;;;;;;;1870986;75;26318;-90
2022/08/04 10:35:10;;;;;;;0.95;0.80;;;;;;;;;;1862699;75;26210;-89
2022/08/04 10:37:41;;;;;;;0.78;0.78;;;;;;;;;;1879173;75;26333;-90
2022/08/04 10:43:09;;;;;;;1.00;0.90;;;;;;;;;;1851587;75;26210;-87
2022/08/04 10:45:38;;;;;;;1.07;1.07;;;;;;;;;;1860837;75;26633;-86
2022/08/04 10:48:13;;;;;;;1.07;1.07;;;;;;;;;;1864964;75;26633;-87
2022/08/04 10:50:42;;;;;;;0.90;0.90;;;;;;;;;;1852699;75;26724;-86
2022/08/04 10:53:11;;;;;;;0.98;0.98;;;;;;;;;;1865069;75;26692;-88
2022/08/04 10:55:39;;;;;;;1.00;1.00;;;;;;;;;;1863674;75;26257;-86
2022/08/04 10:58:08;;;;;;;0.85;0.85;;;;;;;;;;1867671;75;26248;-88
2022/08/04 11:00:37;;;;;;;0.80;0.80;;;;;;;;;;1874589;75;26189;-87
2022/08/04 11:03:07;;;;;;;1.10;1.10;;;;;;;;;;1862738;75;26228;-84
2022/08/04 11:05:45;;;;;;;0.90;0.90;;;;;;;;;;1868422;75;26315;-87
2022/08/04 11:08:13;;;;;;;1.10;1.10;;;;;;;;;;1864455;75;26194;-87
2022/08/04 11:10:48;;;;;;;0.98;0.98;;;;;;;;;;1865564;76;26240;-86
2022/08/04 11:13:16;;;;;;;1.00;1.00;;;;;;;;;;1843802;75;26272;-88
2022/08/04 11:15:47;;;;;;;0.98;0.98;;;;;;;;;;1886284;75;26206;-89
2022/08/04 11:18:18;;;;;;;1.02;0.98;;;;;;;;;;1855963;75;26223;-88
2022/08/04 11:20:59;;;;;;;2.20;1.10;;;;;;;;;;1864165;75;26177;-88
2022/08/04 11:23:27;;;;;;;0.90;0.90;;;;;;;;;;1786858;79;26408;-87
2022/08/04 11:25:56;;;;;;;1.00;1.00;;;;;;;;;;1807770;78;26307;-89
2022/08/04 11:28:28;;;;;;;1.00;0.90;;;;;;;;;;1815908;77;26254;-87
2022/08/04 11:31:06;;;;;;;1.07;1.07;;;;;;;;;;1808558;77;26252;-87
2022/08/04 11:33:37;;;;;;;0.90;0.90;;;;;;;;;;1794467;77;26318;-90
2022/08/04 11:36:09;;;;;;;0.90;0.90;;;;;;;;;;1817230;77;26248;-90
2022/08/04 11:38:49;;;;;;;0.90;0.90;;;;;;;;;;1833363;76;26278;-90
2022/08/04 11:41:18;;;;;;;0.90;0.90;;;;;;;;;;1824142;75;26224;-91
2022/08/04 11:43:50;;;;;;;0.80;0.80;;;;;;;;;;1829964;76;26658;-88
2022/08/04 11:46:19;;;;;;;0.82;0.82;;;;;;;;;;1818212;78;26325;-88
2022/08/04 11:49:02;;;;;;;1.17;1.10;;;;;;;;;;1835314;76;26375;-89
2022/08/04 11:51:31;;;;;;;0.95;0.95;;;;;;;;;;1835337;76;26259;-88
2022/08/04 11:53:59;;;;;;;0.80;0.80;;;;;;;;;;1835822;76;26801;-91
2022/08/04 11:56:26;;;;;;;0.80;0.80;;;;;;;;;;1856120;75;26342;-89
2022/08/04 11:58:55;;;;;;;0.90;0.90;;;;;;;;;;1849797;75;26401;-87
2022/08/04 12:01:26;;;;;;;0.70;0.70;;;;;;;;;;1835779;76;26265;-88
2022/08/04 12:03:58;;;;;;;1.75;0.80;;;;;;;;;;1867085;74;26282;-88
2022/08/04 12:06:28;;;;;;;0.80;0.80;;;;;;;;;;1858735;75;26262;-88
2022/08/04 12:09:13;;;;;;;0.90;0.90;;;;;;;;;;1859319;75;26300;-86
2022/08/04 12:12:02;;;;;;;1.15;0.90;;;;;;;;;;1842223;75;26266;-90
2022/08/04 12:14:47;;;;;;;2.92;0.85;;;;;;;;;;1841533;75;26304;-91
2022/08/04 12:17:17;;;;;;;0.80;0.80;;;;;;;;;;1830107;75;26235;-89
2022/08/04 12:19:52;;;;;;;1.70;1.00;;;;;;;;;;1871619;71;26224;-92
2022/08/04 12:22:21;;;;;;;3.02;0.90;;;;;;;;;;1872483;74;26214;-89
2022/08/04 12:24:55;;;;;;;1.27;1.02;;;;;;;;;;1882449;72;26277;-91
2022/08/04 12:27:24;;;;;;;2.17;1.10;;;;;;;;;;1888235;73;26273;-91
2022/08/04 12:29:51;;;;;;;0.90;0.90;;;;;;;;;;1895974;71;26260;-91
2022/08/04 12:32:23;;;;;;;1.40;1.00;;;;;;;;;;1888531;72;26226;-89
2022/08/04 12:35:10;;;;;;;0.90;0.90;;;;;;;;;;1865072;75;26291;-91
2022/08/04 12:37:45;;;;;;;1.80;0.85;;;;;;;;;;1834800;75;26253;-90
2022/08/04 12:40:15;;;;;;;1.98;1.10;;;;;;;;;;1885854;75;26311;-91
2022/08/04 12:42:50;;;;;;;1.87;0.90;;;;;;;;;;1900527;74;26247;-92
2022/08/04 12:45:17;;;;;;;1.45;0.90;;;;;;;;;;1859401;75;26187;-91
2022/08/04 12:47:46;;;;;;;0.85;0.85;;;;;;;;;;1866437;75;26800;-90
2022/08/04 12:50:14;;;;;;;0.82;0.82;;;;;;;;;;1890850;74;26697;-91
2022/08/04 12:52:43;;;;;;;1.10;0.98;;;;;;;;;;1884145;74;26324;-92
2022/08/04 12:55:11;;;;;;;0.72;0.70;;;;;;;;;;1884734;75;26300;-91
2022/08/04 12:57:39;;;;;;;1.00;0.80;;;;;;;;;;1889014;75;26200;-91
2022/08/04 13:00:07;;;;;;;3.35;0.95;;;;;;;;;;1869229;75;26342;-88
2022/08/04 13:02:36;;;;;;;0.80;0.80;;;;;;;;;;1869135;74;26204;-87
2022/08/04 13:05:06;;;;;;;0.90;0.90;;;;;;;;;;1869658;74;26658;-86
2022/08/04 13:07:38;;;;;;;0.93;0.78;;;;;;;;;;1884102;75;26225;-88
2022/08/04 13:10:13;;;;;;;0.80;0.80;;;;;;;;;;1869207;73;26759;-88
2022/08/04 13:12:41;;;;;;;1.00;1.00;;;;;;;;;;1841090;77;26220;-88
2022/08/04 13:15:10;;;;;;;1.42;0.80;;;;;;;;;;1829166;77;25720;-88
2022/08/04 13:17:55;;;;;;;0.90;0.90;;;;;;;;;;1851978;75;26739;-87
2022/08/04 13:20:29;;;;;;;1.55;0.72;;;;;;;;;;1882171;75;26203;-89
2022/08/04 13:22:58;;;;;;;1.02;0.82;;;;;;;;;;1867208;75;26233;-88
2022/08/04 13:25:27;;;;;;;0.78;0.78;;;;;;;;;;1891036;74;26241;-87
2022/08/04 13:27:55;;;;;;;2.92;0.93;;;;;;;;;;1878983;74;26275;-88
2022/08/04 13:30:22;;;;;;;1.90;1.00;;;;;;;;;;1882047;74;26291;-88
2022/08/04 13:32:54;;;;;;;0.88;0.85;;;;;;;;;;1880924;75;26765;-87
2022/08/04 13:35:23;;;;;;;0.82;0.82;;;;;;;;;;1881284;74;26311;-90
2022/08/04 13:37:50;;;;;;;2.10;1.15;;;;;;;;;;1885481;74;26396;-88
2022/08/04 13:40:19;;;;;;;1.00;0.90;;;;;;;;;;1895985;74;26675;-88
2022/08/04 13:42:47;;;;;;;1.00;0.90;;;;;;;;;;1884360;74;26700;-88
2022/08/04 13:45:15;;;;;;;0.80;0.80;;;;;;;;;;1887171;74;26304;-88
2022/08/04 13:47:43;;;;;;;1.05;1.05;;;;;;;;;;1892464;74;26785;-88
2022/08/04 13:50:11;;;;;;;0.85;0.85;;;;;;;;;;1882338;75;26293;-87
2022/08/04 13:52:42;;;;;;;0.80;0.80;;;;;;;;;;1885597;74;26242;-88
2022/08/04 13:55:10;;;;;;;0.88;0.88;;;;;;;;;;1879759;74;26886;-88
2022/08/04 13:57:39;;;;;;;0.80;0.80;;;;;;;;;;1865062;75;26732;-88
2022/08/04 14:00:08;;;;;;;0.80;0.80;;;;;;;;;;1881628;74;26237;-89
2022/08/04 14:02:40;;;;;;;0.88;0.88;;;;;;;;;;1837627;77;26276;-88
2022/08/04 14:05:09;;;;;;;0.85;0.80;;;;;;;;;;1844361;74;26249;-88
2022/08/04 14:07:37;;;;;;;0.70;0.70;;;;;;;;;;1868305;75;26338;-88
2022/08/04 14:10:11;;;;;;;2.83;0.90;;;;;;;;;;1852702;75;26361;-88
2022/08/04 14:12:49;;;;;;;0.80;0.80;;;;;;;;;;1852250;75;26352;-87
2022/08/04 14:15:35;;;;;;;0.95;0.95;;;;;;;;;;1856572;75;26266;-88
2022/08/04 14:18:04;;;;;;;0.88;0.80;;;;;;;;;;1867643;75;26257;-88
2022/08/04 14:20:31;;;;;;;0.70;0.70;;;;;;;;;;1859541;73;26234;-87
2022/08/04 14:23:01;;;;;;;0.70;0.70;;;;;;;;;;1866108;75;26256;-87
2022/08/04 14:25:28;;;;;;;0.70;0.70;;;;;;;;;;1850170;73;26659;-87
2022/08/04 14:27:56;;;;;;;0.90;0.90;;;;;;;;;;1876016;74;26351;-88
2022/08/04 14:30:28;;;;;;;0.90;0.90;;;;;;;;;;1840609;76;26232;-89
2022/08/04 14:32:56;;;;;;;0.85;0.85;;;;;;;;;;1860950;75;26356;-88
2022/08/04 14:35:23;;;;;;;1.00;1.00;;;;;;;;;;1867178;75;26241;-88
2022/08/04 14:37:55;;;;;;;0.90;0.90;;;;;;;;;;1855863;75;26457;-88
2022/08/04 14:40:27;;;;;;;2.70;0.90;;;;;;;;;;1850643;74;27134;-88
2022/08/04 14:42:55;;;;;;;0.90;0.90;;;;;;;;;;1872150;75;26648;-87
2022/08/04 14:45:29;;;;;;;0.72;0.70;;;;;;;;;;1865136;75;26274;-87
2022/08/04 14:47:57;;;;;;;0.80;0.80;;;;;;;;;;1868745;74;26717;-87
2022/08/04 14:50:34;;;;;;;0.90;0.90;;;;;;;;;;1859557;75;26321;-88
2022/08/04 14:53:03;;;;;;;0.75;0.75;;;;;;;;;;1867071;75;26269;-87
2022/08/04 14:55:30;;;;;;;0.98;0.98;;;;;;;;;;1876458;75;26242;-88
2022/08/04 14:57:58;;;;;;;0.88;0.80;;;;;;;;;;1868131;74;26249;-87
2022/08/04 15:00:26;;;;;;;0.80;0.80;;;;;;;;;;1850108;75;26384;-88
2022/08/04 15:02:54;;;;;;;0.80;0.80;;;;;;;;;;1879265;74;26431;-87
2022/08/04 15:05:22;;;;;;;0.80;0.80;;;;;;;;;;1854224;75;27108;-88
2022/08/04 15:07:49;;;;;;;0.80;0.80;;;;;;;;;;1866199;74;26233;-87
2022/08/04 15:10:16;;;;;;;0.78;0.78;;;;;;;;;;1870413;74;26268;-85
2022/08/04 15:12:44;;;;;;;0.80;0.80;;;;;;;;;;1866421;75;26352;-89
2022/08/04 15:15:12;;;;;;;1.55;0.80;;;;;;;;;;1875494;75;26375;-88